Time;durP1;ratioP1;P1;durP2;ratioP2;P2;SDS_P1;SDS_P2;PMS_P1;PMS_P2;Temp;Humidity;BMP_temperature;BMP_pressure;BME280_temperature;BME280_humidity;BME280_pressure;Samples;Min_cycle;Max_cycle;Signal;HPM_P1;HPM_P2
2021/01/26 00:01:23;;;;;;;35.63;19.80;;;2.10;99.90;;;2.62;93.65;99969.19;5023283;28;20036;-84
2021/01/26 00:03:49;;;;;;;39.30;19.55;;;2.20;99.90;;;2.57;93.90;99963.00;5041817;28;20060;-83
2021/01/26 00:06:15;;;;;;;41.53;21.95;;;2.10;99.90;;;2.71;93.31;99969.19;5042016;28;20064;-84
2021/01/26 00:08:41;;;;;;;40.90;20.20;;;2.20;99.90;;;2.69;93.42;99973.41;5023562;28;20064;-84
2021/01/26 00:11:08;;;;;;;41.25;20.27;;;2.10;99.90;;;2.56;93.79;99980.69;5022926;28;20124;-84
2021/01/26 00:13:35;;;;;;;37.75;19.75;;;2.10;99.90;;;2.50;94.08;99970.97;5025526;28;20037;-84
2021/01/26 00:16:04;;;;;;;38.47;19.70;;;2.10;99.90;;;2.53;93.91;99987.66;5042666;28;20034;-83
2021/01/26 00:18:31;;;;;;;38.67;19.73;;;2.00;99.90;;;2.49;94.47;99978.41;5044781;28;20060;-85
2021/01/26 00:20:58;;;;;;;45.25;19.77;;;2.10;99.90;;;2.51;94.72;99983.59;5028204;28;20033;-82
2021/01/26 00:23:24;;;;;;;36.05;21.08;;;2.20;99.90;;;2.56;94.49;99978.75;5028584;28;20037;-82
2021/01/26 00:25:53;;;;;;;33.85;20.00;;;2.10;99.90;;;2.67;94.22;99980.06;5028264;28;20374;-84
2021/01/26 00:28:19;;;;;;;38.47;20.20;;;2.30;99.90;;;2.75;93.71;99978.47;5028292;28;20053;-85
2021/01/26 00:30:46;;;;;;;39.42;20.73;;;2.20;99.90;;;2.69;93.89;99978.94;5027037;28;20044;-82
2021/01/26 00:33:22;;;;;;;37.78;20.95;;;2.20;99.90;;;2.76;93.85;99985.56;5027052;28;20051;-82
2021/01/26 00:35:51;;;;;;;35.80;21.67;;;2.20;99.90;;;2.73;94.04;99988.19;5027397;28;20021;-82
2021/01/26 00:38:23;;;;;;;32.80;19.90;;;2.20;99.90;;;2.85;93.68;99985.59;5027796;28;20044;-83
2021/01/26 00:40:52;;;;;;;37.20;20.52;;;2.20;99.90;;;2.76;94.20;99982.03;5027786;28;20341;-82
2021/01/26 00:43:18;;;;;;;38.30;20.90;;;2.30;99.90;;;2.85;93.95;99982.84;5026344;28;20041;-83
2021/01/26 00:45:44;;;;;;;41.63;20.45;;;2.20;99.90;;;2.83;94.14;99987.84;5025148;28;20041;-82
2021/01/26 00:48:10;;;;;;;38.58;22.40;;;2.30;99.90;;;2.78;94.51;99994.34;5023838;28;20037;-85
2021/01/26 00:50:39;;;;;;;44.25;21.25;;;2.30;99.90;;;2.84;94.41;100004.09;5025266;28;20029;-83
2021/01/26 00:53:07;;;;;;;34.80;20.83;;;2.20;99.90;;;2.82;94.37;100000.03;5023844;28;20065;-84
2021/01/26 00:55:33;;;;;;;35.20;19.42;;;2.20;99.90;;;2.67;94.59;100004.88;5021843;28;20033;-83
2021/01/26 00:57:59;;;;;;;34.50;19.15;;;2.20;99.90;;;2.75;94.28;100000.53;5022435;28;20030;-82
2021/01/26 01:00:35;;;;;;;38.72;20.80;;;2.20;99.90;;;2.70;94.51;99997.13;5038482;28;20025;-85
2021/01/26 01:03:02;;;;;;;33.05;19.95;;;2.20;99.90;;;2.70;95.15;99995.13;5019135;28;20038;-85
2021/01/26 01:05:28;;;;;;;33.22;19.67;;;2.20;99.90;;;2.73;95.03;99994.50;5041018;28;20044;-83
2021/01/26 01:07:54;;;;;;;36.22;20.42;;;2.20;99.90;;;2.82;94.36;99998.09;5027034;28;20473;-83
2021/01/26 01:10:27;;;;;;;32.03;19.27;;;2.20;99.90;;;2.73;94.28;99994.50;5026020;28;20497;-83
2021/01/26 01:12:53;;;;;;;37.28;20.33;;;2.20;99.90;;;2.73;94.57;100000.00;5025055;28;20108;-84
2021/01/26 01:15:21;;;;;;;32.60;19.38;;;2.20;99.90;;;2.68;94.85;100000.19;5025007;28;20473;-85
2021/01/26 01:17:49;;;;;;;35.30;20.20;;;2.20;99.90;;;2.74;94.68;100001.66;5023747;28;20028;-83
2021/01/26 01:20:23;;;;;;;31.63;19.80;;;2.20;99.90;;;2.74;94.96;99989.78;5025324;28;20477;-82
2021/01/26 01:22:49;;;;;;;40.90;21.50;;;2.10;99.90;;;2.72;95.11;99981.88;5042182;28;20029;-83
2021/01/26 01:25:15;;;;;;;36.65;20.45;;;2.20;99.90;;;2.62;95.44;99987.69;5044021;28;20033;-84
2021/01/26 01:27:42;;;;;;;37.22;20.65;;;2.20;99.90;;;2.79;95.13;99995.19;5025077;28;20480;-82
2021/01/26 01:30:25;;;;;;;38.05;20.58;;;2.20;99.90;;;2.66;95.29;99974.88;5033151;28;20030;-83
2021/01/26 01:33:00;;;;;;;41.22;20.70;;;2.20;99.90;;;2.73;94.88;99974.41;5034486;28;20029;-83
2021/01/26 01:35:39;;;;;;;31.00;18.40;;;2.20;99.90;;;2.75;94.99;99974.88;5034557;28;20021;-83
2021/01/26 01:38:11;;;;;;;34.65;19.27;;;2.20;99.90;;;2.85;94.36;99980.09;5034612;28;20477;-85
2021/01/26 01:40:41;;;;;;;28.15;17.73;;;2.30;99.90;;;2.75;94.12;99981.22;5033004;28;20065;-84
2021/01/26 01:43:08;;;;;;;29.15;18.10;;;2.20;99.90;;;2.74;94.66;99981.53;5031800;28;20037;-84
2021/01/26 01:45:42;;;;;;;32.05;17.95;;;2.30;99.90;;;2.69;94.62;99985.25;5033287;28;20038;-84
2021/01/26 01:48:25;;;;;;;33.15;19.33;;;2.30;99.90;;;2.75;94.14;99989.50;5038653;28;20033;-84
2021/01/26 01:51:17;;;;;;;29.50;16.92;;;2.20;99.90;;;2.80;94.02;99988.50;5038530;28;20271;-84
2021/01/26 01:53:58;;;;;;;30.27;17.75;;;2.20;99.90;;;2.90;93.94;100000.03;5036935;28;20041;-83
2021/01/26 01:56:42;;;;;;;33.75;19.33;;;2.20;99.90;;;2.63;94.89;100001.13;5035408;28;20030;-84
2021/01/26 01:59:31;;;;;;;32.53;20.25;;;2.20;99.90;;;2.64;95.42;100002.75;5035391;28;20386;-83
2021/01/26 02:02:01;;;;;;;36.28;21.27;;;2.20;99.90;;;2.67;95.24;100001.31;5034821;28;20040;-83
2021/01/26 02:04:30;;;;;;;35.72;20.88;;;2.10;99.90;;;2.89;94.19;100016.94;5034980;28;20033;-83
2021/01/26 02:06:58;;;;;;;33.95;20.20;;;2.20;99.90;;;2.75;95.03;99996.94;5033583;28;20029;-83
2021/01/26 02:09:31;;;;;;;36.15;20.10;;;2.30;99.90;;;2.77;95.10;100001.00;5034328;28;20053;-82
2021/01/26 02:11:59;;;;;;;34.08;21.08;;;2.30;99.90;;;2.85;94.96;99985.59;5051116;28;20061;-85
2021/01/26 02:14:37;;;;;;;31.85;19.35;;;2.40;99.90;;;2.77;95.35;99989.16;5034790;28;20033;-85
2021/01/26 02:17:52;;;;;;;33.53;18.00;;;2.30;99.90;;;2.97;93.98;99994.88;5034012;28;20046;-85
2021/01/26 02:21:24;;;;;;;29.55;17.60;;;2.50;99.90;;;2.97;93.64;99992.09;5032783;28;20034;-83
2021/01/26 02:23:59;;;;;;;32.67;17.17;;;2.50;99.90;;;3.09;93.92;100002.50;5033854;28;20045;-85
2021/01/26 02:27:20;;;;;;;27.52;16.95;;;2.60;99.90;;;3.03;93.90;100001.03;5034115;28;20112;-83
2021/01/26 02:30:58;;;;;;;29.80;17.67;;;2.60;99.90;;;2.97;94.43;99996.81;5034341;28;20041;-84
2021/01/26 02:35:00;;;;;;;28.92;17.33;;;2.50;99.90;;;3.00;93.89;100002.50;5030500;28;20116;-85
2021/01/26 02:38:17;;;;;;;32.50;17.63;;;2.50;99.90;;;2.92;94.61;99997.75;5032337;28;20033;-83
2021/01/26 02:41:16;;;;;;;32.17;18.38;;;2.50;99.90;;;3.00;94.08;100007.19;5031504;28;20037;-85
2021/01/26 02:44:09;;;;;;;31.02;18.38;;;2.50;99.90;;;3.12;93.64;99999.06;5031692;28;20033;-84
2021/01/26 02:46:48;;;;;;;32.05;18.85;;;2.60;99.90;;;3.02;94.33;100005.72;5032913;28;20036;-82
2021/01/26 02:49:52;;;;;;;33.35;19.25;;;2.50;99.90;;;3.05;94.50;99993.25;5049443;28;20033;-85
2021/01/26 02:52:54;;;;;;;36.80;18.38;;;2.60;99.90;;;3.21;93.90;100004.63;5031748;28;20063;-84
2021/01/26 02:55:56;;;;;;;27.88;17.30;;;2.60;99.90;;;3.09;93.85;99999.72;5032361;28;20096;-84
2021/01/26 02:59:00;;;;;;;33.78;19.58;;;2.70;99.90;;;3.11;94.34;100014.03;5030991;28;20357;-85
2021/01/26 03:01:47;;;;;;;36.60;17.70;;;2.70;99.90;;;3.15;94.32;100002.00;5028715;28;20037;-84
2021/01/26 03:04:37;;;;;;;32.65;17.33;;;2.70;99.90;;;3.28;93.93;100014.00;5029741;28;20034;-84
2021/01/26 03:07:08;;;;;;;35.25;17.00;;;2.70;99.90;;;3.35;93.53;100019.03;5028803;28;20041;-84
2021/01/26 03:09:46;;;;;;;25.40;15.95;;;2.80;99.90;;;3.30;93.58;100014.53;5026062;28;20061;-85
2021/01/26 03:12:34;;;;;;;26.40;15.43;;;2.80;99.90;;;3.32;93.63;100019.69;5023929;28;20044;-83
2021/01/26 03:15:32;;;;;;;29.02;14.38;;;2.80;99.90;;;3.54;92.31;100025.03;5027372;28;20056;-83
2021/01/26 03:18:07;;;;;;;27.63;13.60;;;2.90;99.90;;;3.43;92.46;100010.78;5029033;28;20025;-84
2021/01/26 03:20:54;;;;;;;26.50;13.82;;;3.00;99.90;;;3.61;92.26;100022.59;5044248;28;20384;-84
2021/01/26 03:23:47;;;;;;;26.45;11.80;;;2.90;99.90;;;3.71;90.84;100027.78;5030750;28;20044;-83
2021/01/26 03:26:24;;;;;;;24.27;13.43;;;3.00;99.90;;;3.55;91.82;100023.91;5028615;28;20409;-84
2021/01/26 03:29:02;;;;;;;24.83;13.50;;;3.00;99.90;;;3.59;91.97;100025.72;5031858;28;20036;-84
2021/01/26 03:31:49;;;;;;;29.52;13.55;;;3.00;99.90;;;3.37;92.81;100023.09;5025249;28;20028;-84
2021/01/26 03:34:15;;;;;;;26.45;13.45;;;3.00;99.90;;;3.45;93.45;100024.25;5025192;28;20038;-82
2021/01/26 03:36:42;;;;;;;24.67;14.40;;;3.00;99.90;;;3.46;93.09;100032.22;5023422;28;20021;-84
2021/01/26 03:39:10;;;;;;;27.05;13.88;;;2.90;99.90;;;3.52;92.86;100039.19;5022711;28;20063;-82
2021/01/26 03:41:37;;;;;;;21.00;13.27;;;3.00;99.90;;;3.47;92.93;100028.28;5023058;28;20029;-84
2021/01/26 03:44:09;;;;;;;24.25;13.13;;;3.00;99.90;;;3.46;92.59;100028.63;5041210;28;20397;-83
2021/01/26 03:47:09;;;;;;;32.42;13.07;;;3.10;99.90;;;3.77;91.74;100036.72;5039729;28;20467;-84
2021/01/26 03:50:27;;;;;;;23.15;11.98;;;3.10;99.90;;;3.68;91.63;100050.53;5023651;28;20152;-82
2021/01/26 03:53:40;;;;;;;23.05;11.35;;;3.20;99.90;;;3.65;91.99;100046.50;5041840;28;20053;-82
2021/01/26 03:56:44;;;;;;;27.70;11.10;;;3.10;99.90;;;3.64;92.37;100042.09;5024721;28;20023;-83
2021/01/26 03:59:55;;;;;;;20.15;11.77;;;3.10;99.90;;;3.62;92.73;100052.66;5025951;28;20044;-84
2021/01/26 04:02:38;;;;;;;23.23;11.80;;;3.10;99.90;;;3.86;91.75;100054.06;5034025;28;20029;-83
2021/01/26 04:05:39;;;;;;;19.75;10.55;;;3.10;99.90;;;3.82;92.00;100056.66;5048152;28;20049;-84
2021/01/26 04:08:17;;;;;;;19.20;10.30;;;3.20;99.90;;;3.94;91.56;100065.13;5042116;28;20064;-81
2021/01/26 04:11:09;;;;;;;22.98;10.15;;;3.20;99.90;;;3.90;91.68;100066.91;5037968;28;20009;-84
2021/01/26 04:14:00;;;;;;;23.33;10.30;;;3.20;99.90;;;3.96;90.87;100068.34;5038245;28;20021;-83
2021/01/26 04:16:42;;;;;;;18.75;8.70;;;3.20;99.90;;;3.86;91.06;100065.13;5035146;28;20105;-85
2021/01/26 04:19:15;;;;;;;31.38;11.40;;;3.20;99.90;;;3.91;90.22;100068.53;5023604;28;20026;-84
2021/01/26 04:21:41;;;;;;;20.77;8.25;;;3.30;99.90;;;4.01;88.88;100059.91;5040492;28;20038;-83
2021/01/26 04:24:08;;;;;;;17.45;6.85;;;3.40;99.90;;;4.16;88.15;100081.50;5020469;28;20021;-84
2021/01/26 04:26:36;;;;;;;18.90;8.50;;;3.50;99.90;;;4.13;88.29;100079.38;5038847;28;20044;-82
2021/01/26 04:29:02;;;;;;;24.75;7.22;;;3.60;99.90;;;4.18;88.99;100093.00;5039785;28;20022;-82
2021/01/26 04:31:28;;;;;;;14.98;7.88;;;3.60;99.90;;;4.04;89.91;100089.66;5047628;28;20389;-83
2021/01/26 04:33:54;;;;;;;15.40;8.52;;;3.40;99.90;;;4.06;89.73;100097.59;5047233;28;20045;-83
2021/01/26 04:36:24;;;;;;;17.50;8.25;;;3.40;99.90;;;4.01;89.62;100098.59;5050033;28;20033;-80
2021/01/26 04:38:50;;;;;;;15.00;6.97;;;3.40;99.90;;;4.01;89.64;100095.84;5037965;28;20139;-79
2021/01/26 04:41:40;;;;;;;15.88;7.28;;;3.40;99.90;;;4.02;89.30;100096.63;5037432;28;20085;-80
2021/01/26 04:45:00;;;;;;;16.95;7.85;;;3.50;99.90;;;3.96;89.64;100104.28;5037205;28;20026;-82
2021/01/26 04:48:12;;;;;;;10.57;6.90;;;3.40;99.90;;;3.95;90.31;100108.16;5028270;28;20017;-83
2021/01/26 04:51:15;;;;;;;17.52;7.38;;;3.40;99.90;;;4.00;89.49;100109.97;5048446;28;20029;-80
2021/01/26 04:54:48;;;;;;;13.70;7.00;;;3.40;99.90;;;4.06;89.33;100123.28;5042819;28;20061;-83
2021/01/26 04:57:47;;;;;;;19.48;7.13;;;3.40;99.90;;;3.88;90.46;100116.16;5018714;28;20026;-83
2021/01/26 05:01:00;;;;;;;11.32;5.80;;;3.40;99.90;;;3.91;90.14;100115.50;5036969;28;20026;-82
2021/01/26 05:04:01;;;;;;;13.07;6.28;;;3.30;99.90;;;3.84;90.35;100129.00;5019308;28;20057;-85
2021/01/26 05:06:49;;;;;;;12.50;5.38;;;3.20;99.90;;;3.73;90.61;100139.56;5020723;28;20055;-86
2021/01/26 05:09:23;;;;;;;12.82;5.57;;;3.20;99.90;;;3.90;90.00;100147.03;5046090;28;20419;-81
2021/01/26 05:11:49;;;;;;;16.52;7.15;;;3.20;99.90;;;3.98;90.02;100159.22;5032970;28;20026;-83
2021/01/26 05:14:37;;;;;;;13.27;6.22;;;3.20;99.90;;;3.86;90.42;100143.28;5034754;28;20037;-82
2021/01/26 05:17:17;;;;;;;19.65;7.63;;;3.20;99.90;;;3.93;90.04;100157.44;5051739;28;20028;-81
2021/01/26 05:20:07;;;;;;;13.63;5.82;;;3.30;99.90;;;3.94;90.49;100158.25;5032645;28;20104;-80
2021/01/26 05:23:05;;;;;;;15.20;6.45;;;3.30;99.90;;;4.01;89.64;100153.03;5028253;28;20350;-83
2021/01/26 05:25:31;;;;;;;16.30;7.35;;;3.30;99.90;;;3.95;90.20;100146.84;5022124;28;20037;-85
2021/01/26 05:27:57;;;;;;;17.15;6.80;;;3.30;99.90;;;3.94;90.00;100161.00;5039903;28;20593;-84
2021/01/26 05:30:34;;;;;;;16.52;8.90;;;3.30;99.90;;;4.04;89.48;100172.56;5020952;28;20063;-83
2021/01/26 05:33:11;;;;;;;14.68;7.00;;;3.30;99.90;;;3.99;89.68;100163.59;5019649;28;20064;-83
2021/01/26 05:35:56;;;;;;;12.32;6.50;;;3.40;99.90;;;3.93;91.13;100165.72;5026423;28;20029;-83
2021/01/26 05:38:23;;;;;;;19.83;8.40;;;3.30;99.90;;;4.00;90.86;100179.84;5028507;28;20034;-84
2021/01/26 05:41:00;;;;;;;20.05;8.02;;;3.30;99.90;;;3.85;91.45;100177.59;5027803;28;20045;-82
2021/01/26 05:43:34;;;;;;;16.25;7.63;;;3.30;99.90;;;3.94;91.86;100178.41;5028089;28;20078;-83
2021/01/26 05:46:08;;;;;;;14.70;7.88;;;3.30;99.90;;;4.00;91.39;100190.09;5027952;28;20033;-84
2021/01/26 05:48:50;;;;;;;14.48;8.38;;;3.40;99.90;;;3.96;92.00;100189.13;5026644;28;20041;-85
2021/01/26 05:51:26;;;;;;;18.23;8.95;;;3.30;99.90;;;3.88;91.63;100193.53;5026495;28;20088;-85
2021/01/26 05:54:05;;;;;;;20.08;7.47;;;3.40;99.90;;;3.99;91.07;100210.56;5027673;28;20420;-83
2021/01/26 05:56:34;;;;;;;16.75;7.60;;;3.40;99.90;;;3.99;91.61;100203.09;5026792;28;20029;-85
2021/01/26 05:59:32;;;;;;;15.75;7.65;;;3.30;99.90;;;3.99;91.84;100211.38;5027283;28;20032;-85
2021/01/26 06:02:20;;;;;;;15.48;7.45;;;3.40;99.90;;;4.01;91.80;100217.41;5026646;28;20025;-84
2021/01/26 06:04:46;;;;;;;13.82;7.30;;;3.30;99.90;;;3.93;92.05;100223.75;5028505;28;20112;-84
2021/01/26 06:07:26;;;;;;;15.75;7.60;;;3.30;99.90;;;3.95;92.03;100217.91;5027598;28;20033;-84
2021/01/26 06:09:52;;;;;;;16.77;7.95;;;3.30;99.90;;;3.95;91.94;100228.97;5027737;28;20048;-83
2021/01/26 06:12:25;;;;;;;11.57;7.50;;;3.30;99.90;;;3.93;93.04;100234.78;5045949;28;20038;-86
2021/01/26 06:14:57;;;;;;;16.95;8.15;;;3.20;99.90;;;3.88;92.92;100231.38;5029519;28;20041;-86
2021/01/26 06:17:34;;;;;;;15.68;7.30;;;3.30;99.90;;;3.93;92.61;100229.25;5039686;28;20036;-85
2021/01/26 06:20:23;;;;;;;17.80;7.25;;;3.30;99.90;;;3.95;93.33;100237.25;5034616;28;20044;-85
2021/01/26 06:22:52;;;;;;;15.02;7.47;;;3.20;99.90;;;3.90;92.51;100232.69;5041308;28;20029;-85
2021/01/26 06:25:27;;;;;;;18.98;7.05;;;3.30;99.90;;;3.88;93.19;100243.25;5024163;28;20030;-86
2021/01/26 06:28:20;;;;;;;15.02;6.68;;;3.30;99.90;;;3.99;92.63;100240.97;5024748;28;20091;-84
2021/01/26 06:31:36;;;;;;;12.60;6.60;;;3.40;99.90;;;4.06;92.19;100250.41;5024472;28;20100;-85
2021/01/26 06:34:55;;;;;;;14.85;6.80;;;3.40;99.90;;;4.06;92.58;100249.59;5041671;28;20030;-84
2021/01/26 06:37:44;;;;;;;20.23;7.45;;;3.30;99.90;;;4.03;92.29;100261.28;5024323;28;20022;-84
2021/01/26 06:40:40;;;;;;;20.92;7.90;;;3.30;99.90;;;3.99;92.89;100272.19;5023776;28;20026;-86
2021/01/26 06:43:44;;;;;;;19.95;8.18;;;3.30;99.90;;;3.90;93.27;100276.06;5038484;28;20358;-84
2021/01/26 06:46:50;;;;;;;16.38;7.72;;;3.30;99.90;;;3.90;92.85;100273.31;5040778;28;20101;-85
2021/01/26 06:49:56;;;;;;;16.67;8.25;;;3.30;99.90;;;3.92;93.66;100282.06;5023685;28;20052;-85
2021/01/26 06:52:55;;;;;;;14.32;8.65;;;3.20;99.90;;;3.93;93.09;100287.28;5021852;28;20029;-84
2021/01/26 06:55:52;;;;;;;16.83;9.93;;;3.20;99.90;;;3.78;93.66;100290.50;5040692;28;20037;-86
2021/01/26 06:59:06;;;;;;;;;;;3.20;99.90;;;3.90;93.84;100287.94;5022228;28;20033;-84
2021/01/26 07:02:12;;;;;;;12.93;8.63;;;3.10;99.90;;;3.97;92.85;100296.56;5019616;28;20004;-84
2021/01/26 07:05:26;;;;;;;16.70;8.82;;;3.20;99.90;;;3.89;93.08;100302.88;5019564;28;20087;-82
2021/01/26 07:08:45;;;;;;;23.40;9.73;;;3.20;99.90;;;3.93;93.78;100306.63;5019828;28;20040;-82
2021/01/26 07:12:03;;;;;;;21.30;9.90;;;3.10;99.90;;;3.87;93.63;100313.44;5020757;28;20033;-83
2021/01/26 07:14:44;;;;;;;;;;;3.10;99.90;;;3.95;93.33;100312.63;5020492;28;20493;-84
2021/01/26 07:17:23;;;;;;;23.15;10.55;;;3.20;99.90;;;3.91;93.46;100313.63;5038534;28;20285;-85
2021/01/26 07:20:28;;;;;;;25.75;13.27;;;3.20;99.90;;;3.95;93.98;100329.22;5038799;28;20026;-83
2021/01/26 07:23:08;;;;;;;24.63;12.40;;;3.10;99.90;;;3.85;94.07;100337.00;5039518;28;20025;-84
2021/01/26 07:26:23;;;;;;;20.45;12.40;;;3.20;99.90;;;4.03;93.17;100330.38;5038438;28;20032;-84
2021/01/26 07:29:37;;;;;;;21.88;11.50;;;3.20;99.90;;;4.06;92.41;100338.84;5012156;28;20100;-82
2021/01/26 07:32:52;;;;;;;21.20;11.75;;;3.20;99.90;;;4.09;92.87;100338.19;5020761;28;20021;-83
2021/01/26 07:35:35;;;;;;;19.90;11.63;;;3.20;99.90;;;4.12;92.54;100350.53;5039103;28;20055;-83
2021/01/26 07:38:28;;;;;;;22.70;12.35;;;3.30;99.90;;;4.07;92.82;100353.47;5021471;28;20099;-83
2021/01/26 07:41:31;;;;;;;20.77;12.38;;;3.30;99.90;;;4.13;92.62;100361.28;5039091;28;20033;-83
2021/01/26 07:44:42;;;;;;;21.85;11.77;;;3.30;99.90;;;4.06;92.89;100360.13;5020217;28;20482;-83
2021/01/26 07:47:40;;;;;;;25.08;12.55;;;3.30;99.90;;;4.07;92.67;100381.13;4987127;28;20037;-82
2021/01/26 07:50:27;;;;;;;20.35;12.18;;;3.30;99.90;;;4.13;93.08;100388.13;5037819;28;20022;-84
2021/01/26 07:54:04;;;;;;;22.17;12.18;;;3.30;99.90;;;4.07;92.68;100386.63;5019329;28;20026;-84
2021/01/26 07:56:40;;;;;;;23.60;12.45;;;3.30;99.90;;;4.13;92.18;100396.41;5018131;28;20116;-85
2021/01/26 07:59:24;;;;;;;21.17;12.25;;;3.40;99.90;;;4.14;92.77;100395.28;5018108;28;20026;-84
2021/01/26 08:02:05;;;;;;;20.73;12.43;;;3.40;99.90;;;4.20;92.44;100396.75;5019914;28;20390;-83
2021/01/26 08:04:41;;;;;;;23.70;12.35;;;3.40;99.90;;;4.20;92.56;100405.88;5019915;28;20171;-82
2021/01/26 08:07:20;;;;;;;19.45;12.60;;;3.40;99.90;;;4.26;92.29;100412.06;5017504;28;20040;-84
2021/01/26 08:09:51;;;;;;;23.42;12.90;;;3.40;99.90;;;4.19;92.85;100400.66;5018240;28;20500;-85
2021/01/26 08:12:29;;;;;;;24.33;14.15;;;3.40;99.90;;;4.25;92.54;100411.22;5035737;28;20025;-84
2021/01/26 08:15:28;;;;;;;23.10;14.55;;;3.40;99.90;;;4.32;91.94;100410.75;5018104;28;20036;-85
2021/01/26 08:17:54;;;;;;;23.33;13.18;;;3.50;99.90;;;4.29;92.65;100413.34;5017767;28;20025;-86
2021/01/26 08:20:28;;;;;;;23.50;12.45;;;3.50;99.90;;;4.23;93.10;100421.81;5017729;28;20033;-87
2021/01/26 08:23:01;;;;;;;19.83;12.60;;;3.40;99.90;;;4.24;93.44;100428.94;5018188;28;20029;-88
2021/01/26 08:25:37;;;;;;;19.23;11.48;;;3.50;99.90;;;4.30;93.33;100426.03;5018254;28;20025;-88
2021/01/26 08:28:34;;;;;;;23.40;12.10;;;3.50;99.90;;;4.25;93.36;100435.28;5037533;28;20093;-87
2021/01/26 08:31:02;;;;;;;;;;;3.50;99.90;;;4.22;93.78;100436.75;5024346;28;20029;-85
2021/01/26 08:33:33;;;;;;;18.92;10.25;;;3.40;99.90;;;4.23;93.57;100446.69;5036663;28;19916;-83
2021/01/26 08:36:37;;;;;;;22.58;10.52;;;3.40;99.90;;;4.13;93.57;100440.63;5041103;28;20025;-85
2021/01/26 08:39:44;;;;;;;26.98;10.40;;;3.40;99.90;;;4.12;94.24;100453.63;5022489;28;20026;-87
2021/01/26 08:42:40;;;;;;;20.17;10.23;;;3.40;99.90;;;4.03;94.58;100457.50;5023306;28;20481;-87
2021/01/26 08:45:09;;;;;;;18.33;9.95;;;3.30;99.90;;;4.08;94.45;100457.34;5023141;28;20029;-85
2021/01/26 08:47:57;;;;;;;20.48;9.30;;;3.30;99.90;;;4.03;95.06;100472.13;5023297;28;20116;-85
2021/01/26 08:50:34;;;;;;;20.10;10.10;;;3.30;99.90;;;4.09;95.01;100467.28;5040819;28;20168;-86
2021/01/26 08:53:34;;;;;;;18.73;10.05;;;3.30;99.90;;;4.03;94.58;100477.66;5025246;28;20110;-85
2021/01/26 08:56:04;;;;;;;18.50;9.48;;;3.30;99.90;;;3.98;95.38;100482.53;5022352;28;20422;-86
2021/01/26 08:58:51;;;;;;;19.67;10.20;;;3.40;99.90;;;4.10;94.33;100491.03;5022349;28;20029;-82
2021/01/26 09:01:23;;;;;;;17.58;10.15;;;3.40;99.90;;;4.11;94.99;100492.66;5022185;28;20068;-85
2021/01/26 09:04:13;;;;;;;22.17;9.77;;;3.40;99.90;;;4.14;94.73;100489.25;5021849;28;20437;-85
2021/01/26 09:06:39;;;;;;;23.65;12.07;;;3.40;99.90;;;4.13;94.83;100493.16;5021794;28;20042;-86
2021/01/26 09:09:31;;;;;;;24.27;11.00;;;3.40;99.90;;;4.18;95.08;100493.81;5039123;28;20033;-87
2021/01/26 09:12:10;;;;;;;21.90;10.75;;;3.40;99.90;;;4.18;94.49;100493.81;5033717;28;20448;-85
2021/01/26 09:14:45;;;;;;;22.00;10.57;;;3.40;99.90;;;4.21;94.45;100507.00;5021183;28;20029;-87
2021/01/26 09:17:30;;;;;;;16.23;9.60;;;3.40;99.90;;;4.20;94.54;100516.44;5021625;28;20063;-82
2021/01/26 09:20:22;;;;;;;18.95;8.95;;;3.50;99.90;;;4.21;94.28;100512.53;5040047;28;20442;-84
2021/01/26 09:22:48;;;;;;;19.33;8.55;;;3.50;99.90;;;4.21;94.35;100520.00;5022370;28;20400;-82
2021/01/26 09:25:32;;;;;;;20.60;8.77;;;3.60;99.90;;;4.24;94.11;100522.94;5021941;28;20501;-83
2021/01/26 09:28:21;;;;;;;16.73;7.75;;;3.60;99.90;;;4.34;94.14;100534.84;5022050;28;20025;-83
2021/01/26 09:31:00;;;;;;;16.20;8.18;;;3.60;99.90;;;4.37;93.78;100531.44;5039564;28;20022;-85
2021/01/26 09:33:29;;;;;;;15.90;7.38;;;3.60;99.90;;;4.40;93.67;100539.91;5021793;28;20061;-86
2021/01/26 09:36:01;;;;;;;14.95;8.68;;;3.60;99.90;;;4.47;93.86;100542.22;5038940;28;20412;-84
2021/01/26 09:38:41;;;;;;;13.75;8.30;;;3.70;99.90;;;4.56;93.72;100554.16;5039190;28;20389;-85
2021/01/26 09:41:12;;;;;;;17.42;9.68;;;3.70;99.90;;;4.59;93.42;100557.06;5040331;28;20112;-85
2021/01/26 09:43:46;;;;;;;18.15;8.77;;;3.70;99.90;;;4.58;93.12;100551.88;5022892;28;20476;-85
2021/01/26 09:46:27;;;;;;;14.68;6.55;;;3.80;99.90;;;4.43;93.12;100544.81;5021817;28;20366;-85
2021/01/26 09:49:06;;;;;;;21.13;9.30;;;3.80;99.90;;;4.47;93.41;100559.63;5022032;28;20033;-83
2021/01/26 09:51:58;;;;;;;14.45;8.73;;;3.80;99.90;;;4.47;93.96;100567.09;5021388;28;20500;-84
2021/01/26 09:54:36;;;;;;;13.45;7.78;;;3.70;99.90;;;4.45;93.76;100566.63;5020582;28;20037;-84
2021/01/26 09:57:06;;;;;;;12.13;6.07;;;3.70;99.90;;;4.40;93.04;100575.06;5039174;28;20043;-85
2021/01/26 09:59:38;;;;;;;10.77;5.75;;;3.60;99.90;;;4.42;93.09;100584.66;5026272;28;20041;-86
2021/01/26 10:02:15;;;;;;;10.02;5.63;;;3.60;99.90;;;4.44;93.01;100584.34;5039528;28;20033;-84
2021/01/26 10:04:46;;;;;;;11.38;4.32;;;3.60;99.90;;;4.40;92.79;100586.13;5023209;28;20045;-84
2021/01/26 10:07:18;;;;;;;7.22;3.70;;;3.60;99.90;;;4.33;93.03;100600.41;5040142;28;20041;-85
2021/01/26 10:09:44;;;;;;;6.70;3.70;;;3.50;99.90;;;4.29;93.62;100606.88;5022124;28;20105;-84
2021/01/26 10:12:26;;;;;;;6.95;3.08;;;3.50;99.90;;;4.18;92.94;100612.69;5042044;28;20401;-84
2021/01/26 10:15:22;;;;;;;5.85;2.47;;;3.40;99.90;;;4.19;93.67;100619.03;5020402;28;20037;-84
2021/01/26 10:18:16;;;;;;;6.32;3.33;;;3.40;99.90;;;4.20;93.29;100627.03;5020358;28;20044;-83
2021/01/26 10:20:45;;;;;;;6.00;2.97;;;3.40;99.90;;;4.23;93.34;100631.91;5039090;28;20033;-83
2021/01/26 10:23:27;;;;;;;5.18;3.15;;;3.30;99.90;;;4.25;93.26;100635.16;5020667;28;20034;-83
2021/01/26 10:26:08;;;;;;;5.88;3.58;;;3.40;99.90;;;4.25;93.44;100635.16;5023016;28;20430;-86
2021/01/26 10:28:35;;;;;;;5.35;3.15;;;3.40;99.90;;;4.37;93.03;100644.81;5024039;28;20029;-83
2021/01/26 10:31:02;;;;;;;5.28;3.33;;;3.40;99.90;;;4.44;92.61;100640.47;5024297;28;20030;-87
2021/01/26 10:33:41;;;;;;;3.50;1.85;;;3.50;99.90;;;4.54;92.22;100637.44;5025522;28;20033;-85
2021/01/26 10:36:37;;;;;;;4.03;2.45;;;3.60;99.90;;;4.74;91.95;100647.13;5024757;28;20032;-86
2021/01/26 10:39:27;;;;;;;3.80;2.25;;;3.70;99.90;;;4.88;91.54;100647.03;5016100;28;20033;-85
2021/01/26 10:42:15;;;;;;;4.70;2.45;;;3.90;99.90;;;4.95;90.84;100650.94;5034165;28;20441;-84
2021/01/26 10:44:55;;;;;;;2.95;2.33;;;4.00;99.90;;;4.94;90.29;100649.31;5024946;28;20129;-84
2021/01/26 10:47:37;;;;;;;3.88;2.40;;;4.00;99.90;;;5.08;89.89;100654.72;5055859;28;20029;-84
2021/01/26 10:50:27;;;;;;;4.30;2.75;;;4.10;99.90;;;4.97;89.85;100654.22;5027181;28;20125;-82
2021/01/26 10:52:53;;;;;;;5.53;2.28;;;4.00;99.90;;;4.95;89.50;100661.19;5022472;28;20033;-84
2021/01/26 10:55:23;;;;;;;4.20;2.42;;;4.00;99.90;;;5.00;89.78;100658.28;5023299;28;20022;-84
2021/01/26 10:57:51;;;;;;;4.28;2.97;;;4.00;99.90;;;5.09;90.16;100659.13;5022574;28;20101;-84
2021/01/26 11:00:25;;;;;;;7.43;3.30;;;4.10;99.90;;;5.10;89.44;100663.53;5020373;28;20073;-82
2021/01/26 11:02:56;;;;;;;7.30;2.72;;;4.20;99.90;;;5.10;89.18;100671.84;5039367;28;20026;-85
2021/01/26 11:05:24;;;;;;;5.70;3.20;;;4.10;99.90;;;5.09;88.59;100672.97;5021347;28;20044;-86
2021/01/26 11:07:51;;;;;;;9.55;3.42;;;4.10;99.90;;;5.23;88.82;100666.16;5039175;28;20478;-85
2021/01/26 11:10:18;;;;;;;7.07;3.38;;;4.20;99.90;;;5.13;87.82;100671.19;5039416;28;20044;-85
2021/01/26 11:12:44;;;;;;;4.88;3.00;;;4.30;99.90;;;5.28;87.69;100668.78;5039566;28;20029;-85
2021/01/26 11:15:26;;;;;;;8.40;3.20;;;4.30;99.90;;;5.13;87.81;100669.25;5021041;28;20029;-84
2021/01/26 11:17:53;;;;;;;5.30;3.08;;;4.30;99.90;;;5.08;86.92;100679.63;5020968;28;20476;-83
2021/01/26 11:20:19;;;;;;;5.68;3.45;;;4.20;99.90;;;5.11;87.97;100679.81;5021584;28;20412;-85
2021/01/26 11:22:45;;;;;;;5.80;3.78;;;4.20;99.90;;;5.14;88.82;100678.34;5040387;28;20029;-85